Terminal Aerodrome Forecast
Issued by NWS

Home | Current Version | Previous Version | Graphics & Text | Print | Product List | Glossary On
Versions: 1 2 3 4 5 6 7 8 9 10 11 12 13 14 15 16 17 18 19 20 21
000
FTUS43 KGRB 280500 AAA
TAFAUW
TAF AMD
KAUW 280503Z 2805/2824 27005KT P6SM SCT009
      TEMPO 2805/2809 BKN009
     FM281100 29008KT P6SM SCT035 BKN070
     FM282000 30006KT P6SM FEW070=

USA.gov is the U.S. government's official web portal to all federal, state and local government web resources and services.